createdAt,value
2018-11-28T00:01:08.012Z,86.33
2018-11-28T00:03:37.528Z,78.73
2018-11-28T00:06:08.651Z,82.97
2018-11-28T00:08:38.532Z,75.90
2018-11-28T00:11:08.064Z,86.60
2018-11-28T00:13:37.441Z,118.23
2018-11-28T00:16:08.577Z,71.57
2018-11-28T00:18:37.950Z,70.97
2018-11-28T00:21:07.435Z,67.03
2018-11-28T00:23:36.788Z,75.73
2018-11-28T00:26:06.458Z,61.47
2018-11-28T00:28:35.933Z,32.80
2018-11-28T00:31:05.344Z,42.73
2018-11-28T00:33:34.705Z,49.10
2018-11-28T00:36:04.127Z,54.10
2018-11-28T00:38:33.477Z,63.77
2018-11-28T00:41:02.834Z,55.33
2018-11-28T00:43:32.806Z,56.50
2018-11-28T00:46:02.153Z,50.77
2018-11-28T00:48:31.469Z,54.90
2018-11-28T00:51:00.838Z,44.27
2018-11-28T00:53:30.193Z,58.60
2018-11-28T00:55:59.603Z,50.00
2018-11-28T00:58:29.225Z,51.33
2018-11-28T01:00:58.655Z,48.27
2018-11-28T01:03:28.014Z,97.53
2018-11-28T01:05:57.382Z,91.57
2018-11-28T01:08:26.787Z,48.30
2018-11-28T01:10:56.177Z,49.00
2018-11-28T01:13:25.599Z,43.77
2018-11-28T01:15:54.932Z,47.10
2018-11-28T01:18:24.367Z,45.67
2018-11-28T01:20:54.282Z,116.07
2018-11-28T01:23:24.312Z,51.67
2018-11-28T01:25:54.188Z,38.97
2018-11-28T01:28:23.588Z,36.73
2018-11-28T01:30:52.932Z,32.43
2018-11-28T01:33:22.354Z,27.67
2018-11-28T01:35:51.787Z,41.10
2018-11-28T01:38:21.168Z,43.13
2018-11-28T01:40:50.584Z,41.70
2018-11-28T01:43:19.949Z,36.07
2018-11-28T01:45:49.471Z,34.47
2018-11-28T01:48:18.911Z,33.57
2018-11-28T01:50:48.785Z,27.50
2018-11-28T01:53:18.167Z,33.13
2018-11-28T01:55:47.508Z,32.70
2018-11-28T01:58:16.931Z,37.47
2018-11-28T02:00:46.469Z,28.03
2018-11-28T02:03:15.879Z,33.40
2018-11-28T02:05:45.243Z,59.67
2018-11-28T02:08:15.605Z,33.20
2018-11-28T02:10:44.943Z,42.17
2018-11-28T02:13:14.299Z,35.23
2018-11-28T02:15:43.640Z,41.30
2018-11-28T02:18:12.983Z,30.00
2018-11-28T02:20:42.857Z,36.37
2018-11-28T02:23:12.252Z,38.97
2018-11-28T02:25:41.670Z,36.47
2018-11-28T02:28:11.925Z,43.73
2018-11-28T02:30:41.336Z,47.07
2018-11-28T02:33:11.171Z,45.93
2018-11-28T02:35:40.538Z,32.67
2018-11-28T02:38:10.821Z,31.23
2018-11-28T02:40:40.539Z,27.47
2018-11-28T02:43:10.045Z,27.47
2018-11-28T02:45:39.454Z,26.17
2018-11-28T02:48:09.430Z,23.43
2018-11-28T02:50:38.863Z,24.77
2018-11-28T02:53:09.255Z,30.97
2018-11-28T02:55:38.706Z,65.00
2018-11-28T02:58:09.020Z,54.73
2018-11-28T03:00:38.432Z,30.23
2018-11-28T03:03:08.153Z,24.97
2018-11-28T03:05:38.296Z,27.70
2018-11-28T03:08:09.133Z,27.30
2018-11-28T03:10:39.058Z,22.23
2018-11-28T03:13:08.638Z,19.37
2018-11-28T03:15:39.003Z,22.03
2018-11-28T03:18:09.299Z,24.87
2018-11-28T03:20:39.293Z,23.63
2018-11-28T03:23:10.159Z,21.37
2018-11-28T03:25:39.701Z,47.03
2018-11-28T03:28:09.133Z,26.97
2018-11-28T03:30:38.627Z,21.70
2018-11-28T03:33:12.194Z,36.73
2018-11-28T03:35:41.686Z,31.03
2018-11-28T03:38:11.071Z,23.10
2018-11-28T03:40:41.085Z,18.23
2018-11-28T03:43:10.442Z,18.50
2018-11-28T03:45:39.930Z,17.13
2018-11-28T03:48:09.465Z,23.07
2018-11-28T03:50:39.114Z,22.70
2018-11-28T03:53:09.526Z,29.97
2018-11-28T03:55:38.962Z,25.83
2018-11-28T03:58:09.318Z,22.10
2018-11-28T04:00:38.735Z,21.73
2018-11-28T04:03:09.379Z,19.23
2018-11-28T04:05:38.870Z,19.83
2018-11-28T04:08:09.255Z,22.27
2018-11-28T04:10:38.772Z,22.50
2018-11-28T04:13:10.087Z,17.80
2018-11-28T04:15:39.489Z,18.47
2018-11-28T04:18:09.471Z,16.97
2018-11-28T04:20:38.901Z,14.27
2018-11-28T04:23:08.433Z,11.53
2018-11-28T04:25:38.055Z,11.53
2018-11-28T04:28:07.939Z,10.90
2018-11-28T04:30:38.228Z,11.37
2018-11-28T04:33:12.699Z,10.90
2018-11-28T04:35:42.223Z,12.27
2018-11-28T04:38:11.626Z,10.00
2018-11-28T04:40:41.015Z,13.63
2018-11-28T04:43:10.432Z,14.13
2018-11-28T04:45:39.765Z,11.80
2018-11-28T04:48:09.183Z,11.67
2018-11-28T04:50:38.701Z,11.33
2018-11-28T04:53:08.458Z,13.07
2018-11-28T04:55:37.838Z,16.40
2018-11-28T04:58:07.781Z,13.77
2018-11-28T05:00:37.142Z,15.13
2018-11-28T05:03:07.656Z,17.87
2018-11-28T05:05:37.045Z,14.93
2018-11-28T05:08:07.536Z,12.00
2018-11-28T05:10:36.867Z,21.93
2018-11-28T05:13:06.569Z,20.73
2018-11-28T05:15:35.912Z,15.93
2018-11-28T05:18:05.302Z,23.70
2018-11-28T05:20:35.969Z,21.47
2018-11-28T05:23:07.159Z,16.37
2018-11-28T05:25:37.041Z,19.60
2018-11-28T05:28:06.727Z,24.07
2018-11-28T05:30:36.159Z,21.37
2018-11-28T05:33:06.005Z,19.90
2018-11-28T05:35:38.787Z,20.07
2018-11-28T05:38:13.007Z,26.37
2018-11-28T05:40:44.123Z,23.57
2018-11-28T05:43:13.737Z,27.03
2018-11-28T05:45:43.461Z,35.87
2018-11-28T05:48:12.862Z,36.87
2018-11-28T05:50:42.250Z,38.47
2018-11-28T05:53:11.609Z,47.10
2018-11-28T05:55:41.541Z,45.77
2018-11-28T05:58:11.052Z,46.27
2018-11-28T06:00:42.071Z,53.43
2018-11-28T06:03:13.114Z,73.33
2018-11-28T06:05:43.982Z,73.90
2018-11-28T06:08:13.362Z,87.33
2018-11-28T06:10:42.722Z,77.63
2018-11-28T06:13:12.986Z,86.27
2018-11-28T06:15:42.361Z,78.57
2018-11-28T06:18:11.724Z,74.03
2018-11-28T06:20:41.351Z,88.27
2018-11-28T06:23:10.698Z,95.83
2018-11-28T06:25:40.256Z,95.87
2018-11-28T06:28:09.850Z,106.43
2018-11-28T06:30:39.218Z,103.67
2018-11-28T06:33:08.733Z,109.70
2018-11-28T06:35:39.001Z,125.27
2018-11-28T06:38:08.806Z,110.33
2018-11-28T06:40:38.893Z,130.20
2018-11-28T06:43:08.537Z,121.57
2018-11-28T06:45:37.917Z,124.00
2018-11-28T06:48:07.969Z,119.30
2018-11-28T06:50:37.671Z,113.80
2018-11-28T06:53:08.297Z,108.77
2018-11-28T06:55:37.683Z,120.37
2018-11-28T06:58:09.752Z,110.47
2018-11-28T07:00:39.192Z,119.17
2018-11-28T07:03:09.512Z,123.70
2018-11-28T07:05:38.943Z,116.60
2018-11-28T07:08:08.885Z,119.03
2018-11-28T07:10:38.283Z,119.97
2018-11-28T07:13:07.827Z,122.07
2018-11-28T07:15:37.298Z,120.13
2018-11-28T07:18:23.969Z,120.90
2018-11-28T07:20:53.360Z,115.53
2018-11-28T07:23:22.734Z,93.10
2018-11-28T07:25:52.288Z,104.30
2018-11-28T07:28:22.319Z,111.20
2018-11-28T07:30:51.675Z,83.27
2018-11-28T07:33:21.020Z,96.20
2018-11-28T07:35:50.348Z,81.23
2018-11-28T07:38:19.922Z,92.03
2018-11-28T07:40:49.505Z,83.47
2018-11-28T07:43:19.554Z,90.03
2018-11-28T07:45:51.169Z,89.67
2018-11-28T07:48:20.640Z,97.50
2018-11-28T07:50:50.527Z,107.83
2018-11-28T07:53:20.043Z,97.00
2018-11-28T07:55:50.484Z,87.90
2018-11-28T07:58:20.200Z,95.77
2018-11-28T08:00:49.659Z,98.87
2018-11-28T08:03:19.041Z,90.80
2018-11-28T08:05:48.528Z,104.60
2018-11-28T08:08:18.025Z,95.03
2018-11-28T08:10:47.504Z,103.33
2018-11-28T08:13:16.941Z,101.10
2018-11-28T08:15:46.302Z,94.97
2018-11-28T08:18:15.701Z,108.23
2018-11-28T08:20:45.759Z,108.43
2018-11-28T08:23:15.130Z,105.33
2018-11-28T08:25:45.627Z,93.13
2018-11-28T08:28:14.775Z,91.50
2018-11-28T08:30:44.273Z,88.67
2018-11-28T08:33:13.680Z,96.63
2018-11-28T08:35:44.492Z,87.07
2018-11-28T08:38:14.052Z,93.47
2018-11-28T08:40:44.104Z,115.27
2018-11-28T08:43:14.055Z,104.00
2018-11-28T08:45:43.543Z,90.23
2018-11-28T08:48:17.331Z,101.63
2018-11-28T08:50:46.879Z,92.90
2018-11-28T08:53:16.323Z,80.57
2018-11-28T08:55:45.722Z,89.60
2018-11-28T08:58:15.084Z,91.80
2018-11-28T09:00:44.438Z,82.93
2018-11-28T09:03:13.791Z,91.20
2018-11-28T09:05:43.121Z,95.37
2018-11-28T09:08:13.008Z,78.60
2018-11-28T09:10:42.416Z,88.90
2018-11-28T09:13:11.802Z,89.87
2018-11-28T09:15:41.262Z,88.77
2018-11-28T09:18:11.204Z,79.63
2018-11-28T09:20:40.593Z,76.97
2018-11-28T09:23:11.149Z,68.83
2018-11-28T09:25:40.570Z,70.23
2018-11-28T09:28:10.240Z,72.67
2018-11-28T09:30:45.192Z,67.20
2018-11-28T09:33:14.551Z,70.33
2018-11-28T09:35:43.954Z,78.03
2018-11-28T09:38:15.660Z,72.87
2018-11-28T09:40:45.083Z,65.83
2018-11-28T09:43:15.297Z,65.80
2018-11-28T09:45:44.998Z,64.50
2018-11-28T09:48:14.372Z,61.23
2018-11-28T09:50:43.833Z,61.07
2018-11-28T09:53:13.556Z,63.47
2018-11-28T09:55:42.907Z,64.10
2018-11-28T09:58:12.307Z,69.07
2018-11-28T10:00:41.669Z,60.47
2018-11-28T10:03:11.178Z,58.17
2018-11-28T10:05:41.007Z,62.67
2018-11-28T10:08:11.500Z,63.87
2018-11-28T10:10:40.982Z,61.03
2018-11-28T10:13:10.492Z,69.50
2018-11-28T10:15:40.094Z,52.83
2018-11-28T10:18:09.932Z,57.97
2018-11-28T10:20:39.358Z,58.07
2018-11-28T10:23:09.492Z,53.77
2018-11-28T10:25:39.049Z,50.93
2018-11-28T10:28:09.941Z,50.23
2018-11-28T10:30:40.055Z,47.87
2018-11-28T10:33:12.343Z,50.70
2018-11-28T10:35:42.876Z,57.63
2018-11-28T10:38:12.277Z,49.77
2018-11-28T10:40:46.695Z,45.33
2018-11-28T10:43:16.059Z,54.80
2018-11-28T10:45:45.416Z,48.90
2018-11-28T10:48:14.792Z,42.50
2018-11-28T10:50:44.239Z,47.33
2018-11-28T10:53:13.581Z,52.17
2018-11-28T10:55:42.968Z,45.07
2018-11-28T10:58:12.343Z,46.37
2018-11-28T11:00:47.280Z,46.67
2018-11-28T11:03:22.079Z,50.03
2018-11-28T11:05:56.828Z,47.33
2018-11-28T11:08:27.733Z,42.50
2018-11-28T11:11:02.476Z,43.97
2018-11-28T11:13:48.159Z,46.93
2018-11-28T11:16:22.872Z,43.30
2018-11-28T11:18:52.376Z,46.43
2018-11-28T11:21:21.899Z,39.27
2018-11-28T11:23:51.310Z,41.90
2018-11-28T11:26:20.684Z,43.13
2018-11-28T11:28:50.213Z,40.73
2018-11-28T11:31:19.736Z,41.30
2018-11-28T11:33:49.735Z,40.43
2018-11-28T11:36:19.274Z,43.90
2018-11-28T11:38:48.706Z,42.57
2018-11-28T11:41:18.089Z,41.20
2018-11-28T11:43:47.591Z,47.73
2018-11-28T11:46:16.977Z,42.77
2018-11-28T11:48:46.476Z,45.87
2018-11-28T11:51:17.252Z,42.60
2018-11-28T11:53:45.245Z,42.20
2018-11-28T11:56:15.252Z,40.03
2018-11-28T11:58:44.639Z,39.67
2018-11-28T12:01:14.360Z,39.67
2018-11-28T12:03:43.846Z,34.60
2018-11-28T12:06:13.385Z,40.83
2018-11-28T12:08:42.887Z,33.57
2018-11-28T12:11:12.473Z,35.53
2018-11-28T12:13:41.916Z,39.40
2018-11-28T12:16:11.263Z,35.37
2018-11-28T12:18:40.668Z,35.37
2018-11-28T12:21:10.458Z,39.23
2018-11-28T12:23:40.297Z,40.03
2018-11-28T12:26:09.870Z,35.40
2018-11-28T12:28:39.460Z,41.10
2018-11-28T12:31:09.053Z,39.03
2018-11-28T12:33:38.589Z,36.90
2018-11-28T12:36:08.746Z,39.30
2018-11-28T12:38:38.182Z,45.20
2018-11-28T12:41:08.888Z,39.97
2018-11-28T12:43:38.294Z,38.27
2018-11-28T12:46:07.967Z,46.80
2018-11-28T12:48:39.073Z,40.77
2018-11-28T12:51:08.435Z,42.27
2018-11-28T12:53:37.977Z,40.07
2018-11-28T12:56:07.936Z,42.00
2018-11-28T12:58:37.467Z,37.20
2018-11-28T13:01:09.565Z,43.80
2018-11-28T13:03:39.173Z,46.17
2018-11-28T13:06:09.562Z,42.40
2018-11-28T13:08:39.805Z,38.43
2018-11-28T13:11:10.565Z,41.57
2018-11-28T13:13:39.975Z,41.43
2018-11-28T13:16:10.194Z,41.57
2018-11-28T13:18:39.742Z,39.57
2018-11-28T13:21:09.520Z,41.20
2018-11-28T13:23:43.459Z,44.37
2018-11-28T13:26:12.883Z,42.40
2018-11-28T13:28:42.252Z,43.40
2018-11-28T13:31:11.609Z,40.47
2018-11-28T13:33:40.985Z,43.10
2018-11-28T13:36:10.580Z,39.87
2018-11-28T13:38:41.165Z,43.83
2018-11-28T13:41:10.720Z,38.67
2018-11-28T13:43:40.204Z,39.87
2018-11-28T13:46:09.967Z,42.80
2018-11-28T13:48:39.433Z,37.97
2018-11-28T13:51:09.404Z,43.37
2018-11-28T13:53:38.927Z,42.13
2018-11-28T13:58:38.670Z,40.93
2018-11-28T14:01:08.246Z,38.97
2018-11-28T14:03:37.753Z,43.33
2018-11-28T14:06:07.613Z,38.37
2018-11-28T14:08:37.104Z,41.33
2018-11-28T14:11:07.468Z,41.70
2018-11-28T14:13:37.052Z,46.57
2018-11-28T14:16:06.618Z,39.83
2018-11-28T14:18:36.026Z,39.57
2018-11-28T14:21:08.348Z,39.70
2018-11-28T14:23:37.879Z,39.83
2018-11-28T14:26:08.338Z,38.13
2018-11-28T14:28:37.800Z,36.70
2018-11-28T14:31:08.808Z,39.07
2018-11-28T14:33:38.213Z,36.50
2018-11-28T14:36:07.855Z,38.03
2018-11-28T14:38:37.226Z,39.43
2018-11-28T14:41:07.616Z,37.47
2018-11-28T14:43:37.088Z,36.17
2018-11-28T14:46:06.601Z,35.53
2018-11-28T14:48:36.043Z,32.47
2018-11-28T14:51:05.693Z,35.63
2018-11-28T14:53:35.135Z,31.83
2018-11-28T14:56:04.721Z,35.07
2018-11-28T14:58:34.093Z,39.43
2018-11-28T15:01:03.491Z,34.97
2018-11-28T15:03:33.055Z,37.73
2018-11-28T15:06:48.279Z,33.97
2018-11-28T15:10:23.918Z,39.80
2018-11-28T15:12:53.298Z,40.43
2018-11-28T15:15:23.001Z,42.60
2018-11-28T15:17:52.434Z,43.77
2018-11-28T15:20:21.927Z,41.77
2018-11-28T15:22:51.304Z,43.87
2018-11-28T15:25:21.526Z,39.23
2018-11-28T15:27:50.979Z,40.07
2018-11-28T15:30:20.484Z,43.47
2018-11-28T15:32:50.045Z,39.77
2018-11-28T15:35:19.587Z,36.60
2018-11-28T15:37:49.164Z,37.63
2018-11-28T15:40:20.114Z,33.17
2018-11-28T15:42:49.879Z,36.37
2018-11-28T15:45:19.364Z,36.00
2018-11-28T15:47:48.869Z,29.60
2018-11-28T15:50:18.297Z,35.43
2018-11-28T15:52:47.673Z,34.67
2018-11-28T15:55:18.078Z,34.30
2018-11-28T15:57:46.595Z,30.23
2018-11-28T16:00:24.707Z,31.17
2018-11-28T16:02:54.905Z,38.73
2018-11-28T16:05:24.678Z,33.63
2018-11-28T16:07:54.050Z,34.90
2018-11-28T16:10:28.908Z,30.30
2018-11-28T16:12:58.460Z,33.70
2018-11-28T16:15:31.863Z,35.07
2018-11-28T16:18:01.365Z,35.37
2018-11-28T16:20:30.789Z,34.47
2018-11-28T16:23:04.079Z,35.67
2018-11-28T16:25:29.784Z,32.20
2018-11-28T16:27:59.275Z,33.17
2018-11-28T16:30:28.723Z,34.60
2018-11-28T16:32:58.765Z,34.53
2018-11-28T16:35:28.238Z,34.90
2018-11-28T16:38:01.901Z,34.73
2018-11-28T16:40:31.542Z,35.53
2018-11-28T16:43:01.082Z,37.87
2018-11-28T16:45:30.899Z,39.80
2018-11-28T16:48:00.300Z,37.60
2018-11-28T16:50:29.770Z,34.00
2018-11-28T16:52:59.271Z,35.30
2018-11-28T16:55:28.693Z,34.13
2018-11-28T16:57:58.315Z,35.90
2018-11-28T17:00:29.821Z,33.77
2018-11-28T17:02:59.381Z,38.87
2018-11-28T17:05:28.797Z,36.77
2018-11-28T17:07:58.369Z,40.67
2018-11-28T17:10:29.485Z,37.03
2018-11-28T17:13:00.078Z,36.53
2018-11-28T17:15:29.487Z,40.00
2018-11-28T17:18:00.491Z,36.10
2018-11-28T17:20:30.402Z,34.73
2018-11-28T17:23:00.546Z,38.70
2018-11-28T17:25:32.633Z,39.93
2018-11-28T17:28:05.784Z,37.37
2018-11-28T17:30:36.789Z,36.73
2018-11-28T17:33:09.280Z,39.27
2018-11-28T17:35:38.838Z,38.03
2018-11-28T17:38:12.092Z,38.40
2018-11-28T17:40:42.867Z,35.83
2018-11-28T17:43:12.422Z,42.77
2018-11-28T17:45:43.221Z,41.37
2018-11-28T17:48:12.703Z,41.73
2018-11-28T17:50:43.150Z,37.70
2018-11-28T17:53:14.834Z,41.20
2018-11-28T17:55:51.448Z,41.87
2018-11-28T17:58:21.834Z,46.47
2018-11-28T18:00:52.380Z,43.87
2018-11-28T18:03:22.677Z,37.10
2018-11-28T18:05:54.021Z,37.33
2018-11-28T18:08:23.541Z,43.40
2018-11-28T18:10:53.119Z,42.53
2018-11-28T18:13:22.669Z,40.53
2018-11-28T18:15:55.701Z,41.60
2018-11-28T18:18:28.078Z,42.57
2018-11-28T18:20:57.542Z,40.33
2018-11-28T18:23:27.444Z,38.57
2018-11-28T18:25:57.304Z,41.10
2018-11-28T18:28:26.829Z,40.40
2018-11-28T18:30:56.818Z,42.10
2018-11-28T18:33:26.966Z,46.50
2018-11-28T18:35:56.388Z,38.57
2018-11-28T18:38:26.714Z,45.90
2018-11-28T18:40:57.167Z,41.60
2018-11-28T18:43:29.310Z,44.83
2018-11-28T18:45:59.099Z,48.47
2018-11-28T18:48:28.918Z,44.90
2018-11-28T18:50:59.742Z,44.30
2018-11-28T18:53:29.381Z,53.47
2018-11-28T18:55:59.104Z,49.73
2018-11-28T18:58:29.202Z,47.17
2018-11-28T19:00:58.880Z,41.27
2018-11-28T19:03:28.341Z,47.57
2018-11-28T19:06:00.654Z,52.60
2018-11-28T19:08:30.956Z,45.37
2018-11-28T19:11:02.481Z,44.83
2018-11-28T19:13:32.483Z,46.00
2018-11-28T19:16:03.129Z,50.93
2018-11-28T19:18:33.643Z,50.47
2018-11-28T19:21:03.264Z,51.60
2018-11-28T19:23:33.616Z,48.47
2018-11-28T19:26:03.778Z,48.03
2018-11-28T19:28:33.205Z,46.50
2018-11-28T19:31:02.698Z,41.40
2018-11-28T19:33:33.012Z,44.77
2018-11-28T19:36:02.441Z,48.57
2018-11-28T19:38:32.780Z,43.37
2018-11-28T19:41:07.564Z,42.70
2018-11-28T19:43:36.989Z,48.70
2018-11-28T19:46:08.436Z,44.77
2018-11-28T19:48:38.105Z,45.50
2018-11-28T19:51:08.652Z,43.33
2018-11-28T19:53:38.105Z,51.07
2018-11-28T19:56:08.826Z,50.03
2018-11-28T19:58:38.588Z,47.23
2018-11-28T20:01:08.283Z,46.77
2018-11-28T20:03:38.591Z,44.17
2018-11-28T20:06:09.879Z,42.90
2018-11-28T20:08:40.651Z,46.13
2018-11-28T20:11:10.322Z,45.77
2018-11-28T20:13:39.902Z,40.07
2018-11-28T20:16:09.534Z,42.77
2018-11-28T20:18:39.354Z,39.57
2018-11-28T20:21:09.788Z,40.50
2018-11-28T20:23:47.091Z,46.47
2018-11-28T20:26:16.555Z,39.40
2018-11-28T20:28:46.182Z,40.83
2018-11-28T20:31:15.650Z,41.03
2018-11-28T20:33:45.114Z,44.77
2018-11-28T20:36:15.541Z,44.57
2018-11-28T20:38:44.966Z,39.90
2018-11-28T20:41:14.460Z,38.37
2018-11-28T20:43:43.951Z,39.90
2018-11-28T20:46:13.527Z,35.30
2018-11-28T20:48:42.900Z,43.87
2018-11-28T20:51:13.303Z,40.43
2018-11-28T20:53:42.729Z,40.03
2018-11-28T20:56:12.266Z,39.77
2018-11-28T20:58:41.672Z,38.47
2018-11-28T21:01:11.249Z,42.27
2018-11-28T21:03:40.744Z,39.57
2018-11-28T21:08:41.804Z,38.33
2018-11-28T21:11:11.861Z,37.60
2018-11-28T21:13:41.395Z,41.83
2018-11-28T21:16:15.515Z,41.60
2018-11-28T21:18:45.126Z,40.77
2018-11-28T21:21:15.488Z,38.93
2018-11-28T21:23:45.047Z,42.07
2018-11-28T21:26:14.424Z,38.90
2018-11-28T21:28:44.496Z,43.30
2018-11-28T21:31:14.379Z,43.50
2018-11-28T21:33:46.524Z,41.57
2018-11-28T21:36:16.078Z,38.97
2018-11-28T21:38:45.493Z,38.63
2018-11-28T21:41:14.882Z,39.77
2018-11-28T21:43:44.479Z,40.37
2018-11-28T21:46:14.052Z,44.30
2018-11-28T21:48:43.568Z,39.90
2018-11-28T21:51:13.027Z,38.80
2018-11-28T21:53:42.551Z,35.93
2018-11-28T21:56:13.285Z,41.37
2018-11-28T21:58:42.803Z,37.63
2018-11-28T22:01:12.254Z,38.00
2018-11-28T22:03:42.371Z,40.57
2018-11-28T22:06:11.880Z,38.70
2018-11-28T22:08:42.223Z,38.97
2018-11-28T22:11:12.935Z,36.83
2018-11-28T22:13:43.160Z,41.60
2018-11-28T22:16:13.281Z,38.40
2018-11-28T22:18:42.697Z,40.03
2018-11-28T22:21:12.137Z,38.33
2018-11-28T22:23:41.526Z,40.73
2018-11-28T22:26:11.164Z,40.90
2018-11-28T22:28:40.618Z,41.07
2018-11-28T22:31:10.189Z,45.00
2018-11-28T22:33:40.396Z,42.77
2018-11-28T22:36:11.288Z,43.73
2018-11-28T22:38:40.774Z,45.77
2018-11-28T22:41:10.980Z,45.73
2018-11-28T22:43:40.564Z,44.77
2018-11-28T22:46:10.252Z,41.60
2018-11-28T22:48:39.869Z,40.93
2018-11-28T22:51:10.312Z,40.27
2018-11-28T22:53:39.839Z,43.13
2018-11-28T22:56:10.456Z,41.27
2018-11-28T22:58:39.995Z,38.43
2018-11-28T23:01:11.789Z,41.03
2018-11-28T23:03:41.325Z,40.47
2018-11-28T23:06:10.882Z,39.70
2018-11-28T23:08:40.611Z,40.17
2018-11-28T23:11:10.950Z,38.60
2018-11-28T23:13:40.357Z,37.37
2018-11-28T23:16:10.842Z,37.73
2018-11-28T23:18:40.541Z,39.70
2018-11-28T23:21:13.407Z,37.47
2018-11-28T23:23:42.777Z,38.60
2018-11-28T23:26:12.201Z,41.17
2018-11-28T23:28:41.611Z,41.33
2018-11-28T23:31:11.479Z,33.03
2018-11-28T23:33:41.071Z,38.47
2018-11-28T23:36:10.967Z,34.50
2018-11-28T23:38:45.565Z,35.87
2018-11-28T23:41:15.438Z,39.37
2018-11-28T23:43:44.911Z,38.23
2018-11-28T23:46:15.259Z,35.63
2018-11-28T23:48:45.784Z,35.47
2018-11-28T23:51:15.172Z,35.33
2018-11-28T23:53:44.640Z,35.03
2018-11-28T23:56:14.053Z,38.10
2018-11-28T23:58:43.582Z,37.40
